Details From KHPN - Westchester Co
To TXKF - Bermuda Intl
Flight Number -
Tags Real Decoded
Created
Modified
Stats Distance 679 nm / 1,257 km
Max Altitude 0 ft / 0 m
Waypoints 2
Social Downloads 1
Likes 0
Share VATSIM

Download

Looking for another format? Having issues loading an existing format? Contact us
Advertisement - Login to hide

Notes

Decoded

Route

KHPN TXKF

ID Type Via Altitude Latitude Longitude Leg Dist Tot Dist Heading (true) Name
O KHPN APT - 0 ft / 0 m 41.06705˚ -73.71576˚ - 0 nm - -
O TXKF APT - 0 ft / 0 m 32.36669˚ -64.69410˚ 678 nm 678 nm 137° / 143° -

Altitude Profile

Advertisement - Login to hide

Weather


0- 5 10 15 20 25 30 35+ Temperature / ° C

Clouds and Precipitation
Forecast for 2017-12-11 18:00 UTC. Updated 2 hours ago

Ground ~20,000 ft ~40,000 ft Winds

KHPN

Details ICAO KHPN (HPN)
Name WESTCHESTER CO
Region United States
Timezone America/New_York (UTC-5.0)
Stats Elevation 439 ft / 134 m (AMSL)
Location 41.066758° -73.707617°
Runways 2
Magnetic Variation 13.131° W

METAR

KHPN 111856Z 30008KT 10SM SCT043 03/M07 A2996 RMK AO2 SLP151 T00331067

Decode

TAF

KHPN 111722Z 1118/1218 28009KT P6SM FEW030 FM112000 29007KT P6SM FEW030 SCT045 SCT250 FM120100 VRB03KT P6SM BKN250 FM120600 17004KT P6SM OVC100 FM120800 VRB03KT 6SM -RA SCT025 OVC100 FM121600 23015KT P6SM OVC025 AMD NOT SKED

Decode

Departure Runways

ID Width Length Bearing (true) Bearing (mag) Surface Threshold Offset Overrun Length
11 151 ft / 46 m 4,441 ft / 1,354 m 102.45° 115.58° Asphalt 0 ft / 0 m 0 ft / 0 m
16 151 ft / 46 m 6,551 ft / 1,997 m 149.99° 163.12° Asphalt 0 ft / 0 m 200 ft / 61 m
29 151 ft / 46 m 4,441 ft / 1,354 m 282.46° 295.59° Asphalt 1,296 ft / 395 m 0 ft / 0 m
34 151 ft / 46 m 6,551 ft / 1,997 m 330.00° 343.13° Asphalt 0 ft / 0 m 200 ft / 61 m

TXKF

Details ICAO TXKF (BDA)
Name Bermuda Intl
Region Bermuda
Timezone Unknown (UTC+0.0)
Stats Elevation 12 ft / 4 m (AMSL)
Location 32.364038° -64.678684°
Runways 1
Magnetic Variation 14.784° W

METAR

TXKF 111855Z 35008KT 9999 FEW031 BKN180 BKN300 21/16 Q1017

Decode

TAF

TAF TXKF 111731Z 1118/1218 36010KT 9999 SCT030 BKN060 OVC300

Decode

Destination Runways

ID Width Length Bearing (true) Bearing (mag) Surface Threshold Offset Overrun Length
12 150 ft / 46 m 9,701 ft / 2,957 m 101.50° 116.28° Asphalt 0 ft / 0 m 553 ft / 169 m
30 150 ft / 46 m 9,701 ft / 2,957 m 281.52° 296.30° Asphalt 0 ft / 0 m 207 ft / 63 m

Approach Navaids

Runway Type Ident Frequency Range Bearing (true) Bearing (mag) Slope Elevation
30 Localiser IBDA 109.90 MHz 18 nm / 33 km 281.50° 296.29° - 11 ft / 3 m (AMSL)
30 Glidescope IBDA 109.90 MHz 10 nm / 19 km 281.51° 296.30° 3.00° 11 ft / 3 m (AMSL)

Popular Alternatives